Time;durP1;ratioP1;P1;durP2;ratioP2;P2;SDS_P1;SDS_P2;PMS_P1;PMS_P2;Temp;Humidity;BMP_temperature;BMP_pressure;BME280_temperature;BME280_humidity;BME280_pressure;Samples;Min_cycle;Max_cycle;Signal;HPM_P1;HPM_P2
2023/11/20 00:01:21;;;;;;;;;;;;;;;9.32;100.00;99865.25;5047338;28;19964;-64
2023/11/20 00:03:50;;;;;;;;;;;;;;;9.33;100.00;99869.53;5032011;28;20367;-63
2023/11/20 00:06:18;;;;;;;;;;;;;;;9.32;100.00;99854.75;5050670;28;20470;-64
2023/11/20 00:08:45;;;;;;;;;;;;;;;9.40;100.00;99864.72;5050114;28;20038;-63
2023/11/20 00:11:15;;;;;;;;;;;;;;;9.38;100.00;99854.31;5049740;28;19928;-63
2023/11/20 00:13:44;;;;;;;;;;;;;;;9.33;100.00;99856.41;5053059;28;19979;-63
2023/11/20 00:16:11;;;;;;;;;;;;;;;9.32;100.00;99859.13;5050138;28;19963;-64
2023/11/20 00:18:39;;;;;;;;;;;;;;;9.28;100.00;99853.25;5028683;28;19968;-64
2023/11/20 00:21:07;;;;;;;;;;;;;;;9.32;100.00;99849.47;5022866;28;19979;-65
2023/11/20 00:23:34;;;;;;;;;;;;;;;9.36;100.00;99857.97;5032757;28;19932;-64
2023/11/20 00:26:01;;;;;;;;;;;;;;;9.25;100.00;99853.44;5048233;28;19960;-64
2023/11/20 00:28:28;;;;;;;;;;;;;;;9.22;100.00;99852.78;5032656;28;20544;-63
2023/11/20 00:30:55;;;;;;;;;;;;;;;9.25;100.00;99858.69;5068596;22;20024;-54
2023/11/20 00:33:22;;;;;;;;;;;;;;;9.21;100.00;99857.22;5029679;28;19937;-53
2023/11/20 00:35:49;;;;;;;;;;;;;;;9.20;100.00;99860.78;5030109;28;20511;-53
2023/11/20 00:38:16;;;;;;;;;;;;;;;9.10;100.00;99857.91;5031050;28;20020;-55
2023/11/20 00:40:43;;;;;;;;;;;;;;;9.03;100.00;99851.38;5029395;28;19925;-55
2023/11/20 00:43:10;;;;;;;;;;;;;;;9.02;100.00;99854.94;5028309;28;19996;-56
2023/11/20 00:45:37;;;;;;;;;;;;;;;9.04;100.00;99855.69;5030073;28;20367;-56
2023/11/20 00:48:04;;;;;;;;;;;;;;;9.04;100.00;99853.06;5031308;28;20016;-50
2023/11/20 00:50:31;;;;;;;;;;;;;;;9.07;100.00;99852.84;5027455;28;20015;-51
2023/11/20 00:52:59;;;;;;;;;;;;;;;8.99;100.00;99846.41;5028216;28;20032;-49
2023/11/20 00:55:27;;;;;;;;;;;;;;;8.98;100.00;99847.38;5028015;28;20256;-55
2023/11/20 00:57:54;;;;;;;;;;;;;;;9.00;100.00;99841.06;5029967;28;20470;-51
2023/11/20 01:00:21;;;;;;;;;;;;;;;9.01;100.00;99841.94;5023810;28;19980;-51
2023/11/20 01:02:48;;;;;;;;;;;;;;;8.97;100.00;99854.41;5026291;28;19976;-56
2023/11/20 01:05:15;;;;;;;;;;;;;;;9.00;100.00;99843.69;5031775;28;20305;-55
2023/11/20 01:07:42;;;;;;;;;;;;;;;9.01;100.00;99836.69;5027039;28;20012;-56
2023/11/20 01:10:09;;;;;;;;;;;;;;;9.03;100.00;99830.38;5032753;28;19928;-52
2023/11/20 01:12:36;;;;;;;;;;;;;;;9.03;100.00;99845.28;5028201;28;19996;-56
2023/11/20 01:15:03;;;;;;;;;;;;;;;9.08;100.00;99832.69;5030970;28;20015;-53
2023/11/20 01:17:34;;;;;;;;;;;;;;;9.08;100.00;99846.66;5024861;28;20368;-54
2023/11/20 01:20:02;;;;;;;;;;;;;;;9.04;100.00;99844.34;5028141;28;20020;-54
2023/11/20 01:22:30;;;;;;;;;;;;;;;9.07;100.00;99844.16;5026695;28;19983;-56
2023/11/20 01:24:57;;;;;;;;;;;;;;;9.03;100.00;99846.13;5027391;28;20008;-56
2023/11/20 01:27:24;;;;;;;;;;;;;;;9.02;100.00;99836.56;5028325;28;19969;-55
2023/11/20 01:29:51;;;;;;;;;;;;;;;9.04;100.00;99836.47;5029208;28;20442;-54
2023/11/20 01:32:18;;;;;;;;;;;;;;;9.09;100.00;99845.72;5023258;28;20446;-55
2023/11/20 01:34:45;;;;;;;;;;;;;;;9.13;100.00;99848.97;5029461;28;19971;-56
2023/11/20 01:37:12;;;;;;;;;;;;;;;9.16;100.00;99845.34;5028337;28;19972;-55
2023/11/20 01:39:40;;;;;;;;;;;;;;;9.16;100.00;99838.28;5030887;28;19933;-52
2023/11/20 01:42:07;;;;;;;;;;;;;;;9.20;100.00;99846.81;5021217;28;20398;-50
2023/11/20 01:44:34;;;;;;;;;;;;;;;9.11;100.00;99843.84;5028397;28;20020;-55
2023/11/20 01:47:02;;;;;;;;;;;;;;;9.13;100.00;99838.47;5025912;28;20000;-56
2023/11/20 01:49:30;;;;;;;;;;;;;;;9.13;100.00;99846.34;5027037;28;19925;-53
2023/11/20 01:51:57;;;;;;;;;;;;;;;9.09;100.00;99837.00;5025826;28;20237;-56
2023/11/20 01:54:24;;;;;;;;;;;;;;;9.11;100.00;99835.97;5027549;28;19968;-53
2023/11/20 01:56:51;;;;;;;;;;;;;;;9.15;100.00;99841.88;5046215;28;19931;-56
2023/11/20 01:59:18;;;;;;;;;;;;;;;9.11;100.00;99841.22;5025631;28;19970;-54
2023/11/20 02:01:45;;;;;;;;;;;;;;;9.05;100.00;99828.50;5040344;28;19931;-58
2023/11/20 02:04:13;;;;;;;;;;;;;;;9.09;100.00;99821.25;5021697;28;19971;-53
2023/11/20 02:06:40;;;;;;;;;;;;;;;8.94;100.00;99825.72;5031137;28;20021;-54
2023/11/20 02:09:07;;;;;;;;;;;;;;;8.98;100.00;99829.00;5023450;28;20016;-56
2023/11/20 02:11:34;;;;;;;;;;;;;;;8.99;100.00;99821.00;5030565;28;19973;-54
2023/11/20 02:14:01;;;;;;;;;;;;;;;9.02;100.00;99812.94;5029656;28;19967;-55
2023/11/20 02:16:28;;;;;;;;;;;;;;;9.03;100.00;99811.16;5025971;28;20395;-52
2023/11/20 02:18:55;;;;;;;;;;;;;;;9.01;100.00;99813.06;5027535;28;19949;-54
2023/11/20 02:21:22;;;;;;;;;;;;;;;8.94;100.00;99809.97;5026888;28;19925;-55
2023/11/20 02:23:49;;;;;;;;;;;;;;;9.00;100.00;99809.56;5028434;28;20012;-58
2023/11/20 02:26:34;;;;;;;;;;;;;;;9.02;100.00;99805.06;5025032;28;19956;-52
2023/11/20 02:29:23;;;;;;;;;;;;;;;8.94;100.00;99802.09;5030181;28;20353;-50
2023/11/20 02:31:50;;;;;;;;;;;;;;;8.97;100.00;99801.06;5027610;28;20466;-56
2023/11/20 02:34:17;;;;;;;;;;;;;;;9.03;100.00;99798.88;5027856;28;20028;-51
2023/11/20 02:36:44;;;;;;;;;;;;;;;9.05;100.00;99794.38;5031478;28;20016;-53
2023/11/20 02:39:12;;;;;;;;;;;;;;;9.05;100.00;99801.38;5027516;28;19992;-51
2023/11/20 02:41:40;;;;;;;;;;;;;;;9.06;100.00;99798.69;5027760;28;19929;-53
2023/11/20 02:44:08;;;;;;;;;;;;;;;9.07;100.00;99794.25;5032278;28;20016;-53
2023/11/20 02:46:35;;;;;;;;;;;;;;;9.06;100.00;99789.97;5030170;28;19975;-53
2023/11/20 02:49:02;;;;;;;;;;;;;;;8.99;100.00;99789.50;5031618;28;19973;-53
2023/11/20 02:51:30;;;;;;;;;;;;;;;8.98;100.00;99782.56;5033082;28;19925;-50
2023/11/20 02:53:58;;;;;;;;;;;;;;;9.02;100.00;99781.44;5037687;28;19998;-57
2023/11/20 02:56:25;;;;;;;;;;;;;;;8.99;100.00;99778.16;5033673;28;19964;-57
2023/11/20 02:58:52;;;;;;;;;;;;;;;8.99;100.00;99784.25;5034442;28;20313;-53
2023/11/20 03:01:19;;;;;;;;;;;;;;;8.95;100.00;99777.53;5032309;28;20442;-57
2023/11/20 03:03:46;;;;;;;;;;;;;;;8.96;100.00;99775.72;5033507;28;20017;-56
2023/11/20 03:06:13;;;;;;;;;;;;;;;8.97;100.00;99783.53;5034516;28;20020;-54
2023/11/20 03:08:40;;;;;;;;;;;;;;;9.02;100.00;99777.97;5033143;28;20418;-54
2023/11/20 03:11:07;;;;;;;;;;;;;;;9.02;100.00;99778.81;5029538;28;20387;-52
2023/11/20 03:13:39;;;;;;;;;;;;;;;9.00;100.00;99775.44;5028081;28;19967;-52
2023/11/20 03:16:07;;;;;;;;;;;;;;;9.01;100.00;99768.41;5028638;28;20023;-53
2023/11/20 03:18:36;;;;;;;;;;;;;;;9.04;100.00;99761.16;5029785;28;20405;-48
2023/11/20 03:21:03;;;;;;;;;;;;;;;9.04;100.00;99768.19;5031127;28;19925;-52
2023/11/20 03:23:30;;;;;;;;;;;;;;;9.05;100.00;99764.63;5027366;28;19975;-55
2023/11/20 03:25:57;;;;;;;;;;;;;;;9.03;100.00;99769.16;5032912;28;20463;-53
2023/11/20 03:28:24;;;;;;;;;;;;;;;8.94;100.00;99765.34;5029591;28;19979;-52
2023/11/20 03:30:52;;;;;;;;;;;;;;;8.97;100.00;99759.06;5031607;28;20024;-55
2023/11/20 03:33:22;;;;;;;;;;;;;;;8.93;100.00;99763.66;5025063;28;19938;-55
2023/11/20 03:35:49;;;;;;;;;;;;;;;8.97;100.00;99765.16;5032766;28;20016;-49
2023/11/20 03:38:16;;;;;;;;;;;;;;;8.95;100.00;99759.16;5032770;28;19937;-51
2023/11/20 03:40:44;;;;;;;;;;;;;;;8.94;100.00;99762.72;5025487;28;19968;-50
2023/11/20 03:43:11;;;;;;;;;;;;;;;8.99;100.00;99754.53;5029109;28;20023;-53
2023/11/20 03:45:38;;;;;;;;;;;;;;;9.01;100.00;99756.13;5027200;28;19980;-57
2023/11/20 03:48:05;;;;;;;;;;;;;;;8.97;100.00;99759.06;5027376;28;19925;-55
2023/11/20 03:50:33;;;;;;;;;;;;;;;8.99;100.00;99755.38;5030576;28;20020;-55
2023/11/20 03:53:00;;;;;;;;;;;;;;;9.00;100.00;99753.59;5032739;28;19970;-54
2023/11/20 03:55:27;;;;;;;;;;;;;;;8.94;100.00;99748.75;5028881;28;20382;-54
2023/11/20 03:57:54;;;;;;;;;;;;;;;8.91;100.00;99743.69;5025610;28;19974;-53
2023/11/20 04:00:21;;;;;;;;;;;;;;;8.90;100.00;99740.25;5031635;28;19983;-53
2023/11/20 04:02:48;;;;;;;;;;;;;;;8.90;100.00;99739.41;5029774;28;20006;-52
2023/11/20 04:05:15;;;;;;;;;;;;;;;8.89;100.00;99741.19;5027392;28;19993;-51
2023/11/20 04:07:41;;;;;;;;;;;;;;;8.90;100.00;99735.00;5032106;28;19960;-54
2023/11/20 04:10:11;;;;;;;;;;;;;;;8.85;100.00;99744.94;5024893;28;20088;-51
2023/11/20 04:12:38;;;;;;;;;;;;;;;8.87;100.00;99730.81;5032557;28;19929;-52
2023/11/20 04:15:05;;;;;;;;;;;;;;;8.86;100.00;99733.50;5033674;28;20327;-53
2023/11/20 04:17:33;;;;;;;;;;;;;;;8.80;100.00;99731.28;5023289;28;19933;-53
2023/11/20 04:20:01;;;;;;;;;;;;;;;8.84;100.00;99730.16;5033617;28;20021;-55
2023/11/20 04:22:29;;;;;;;;;;;;;;;8.84;100.00;99732.78;5027191;28;20052;-49
2023/11/20 04:24:55;;;;;;;;;;;;;;;8.85;100.00;99722.16;5028828;28;20012;-52
2023/11/20 04:27:23;;;;;;;;;;;;;;;8.81;100.00;99725.09;5028008;28;19984;-53
2023/11/20 04:29:50;;;;;;;;;;;;;;;8.86;100.00;99726.47;5029214;28;19968;-52
2023/11/20 04:32:16;;;;;;;;;;;;;;;8.81;100.00;99725.09;5028774;28;19932;-53
2023/11/20 04:34:44;;;;;;;;;;;;;;;8.84;100.00;99725.75;5036111;28;19972;-51
2023/11/20 04:37:11;;;;;;;;;;;;;;;8.85;100.00;99713.47;5031779;28;19979;-56
2023/11/20 04:39:38;;;;;;;;;;;;;;;8.85;100.00;99721.34;5026215;28;19925;-51
2023/11/20 04:42:05;;;;;;;;;;;;;;;8.84;100.00;99717.88;5027590;28;19929;-51
2023/11/20 04:44:32;;;;;;;;;;;;;;;8.86;100.00;99713.34;5029159;28;20442;-52
2023/11/20 04:46:59;;;;;;;;;;;;;;;8.86;100.00;99715.13;5023176;28;20419;-51
2023/11/20 04:49:26;;;;;;;;;;;;;;;8.87;100.00;99711.56;5025292;28;19933;-54
2023/11/20 04:51:53;;;;;;;;;;;;;;;8.88;100.00;99719.34;5035159;28;20004;-51
2023/11/20 04:54:22;;;;;;;;;;;;;;;8.87;100.00;99698.44;5029352;28;20485;-51
2023/11/20 04:56:49;;;;;;;;;;;;;;;8.85;100.00;99697.72;5031872;28;19929;-53
2023/11/20 04:59:16;;;;;;;;;;;;;;;8.83;100.00;99697.00;5031853;28;20004;-52
2023/11/20 05:01:43;;;;;;;;;;;;;;;8.86;100.00;99694.13;5032815;28;19932;-54
2023/11/20 05:04:10;;;;;;;;;;;;;;;8.86;100.00;99691.50;5035589;28;20012;-50
2023/11/20 05:06:37;;;;;;;;;;;;;;;8.88;100.00;99692.25;5028944;28;20379;-52
2023/11/20 05:09:06;;;;;;;;;;;;;;;8.91;100.00;99684.16;5034983;28;19996;-52
2023/11/20 05:11:36;;;;;;;;;;;;;;;8.92;100.00;99685.88;5035432;28;19952;-50
2023/11/20 05:14:06;;;;;;;;;;;;;;;8.94;100.00;99689.22;5039794;28;19965;-58
2023/11/20 05:16:33;;;;;;;;;;;;;;;8.97;100.00;99686.41;5029730;28;20554;-52
2023/11/20 05:19:02;;;;;;;;;;;;;;;8.99;100.00;99686.28;5032014;28;19925;-52
2023/11/20 05:21:30;;;;;;;;;;;;;;;9.00;100.00;99690.59;5031323;28;20015;-54
2023/11/20 05:23:58;;;;;;;;;;;;;;;8.99;100.00;99688.91;5026586;28;20024;-54
2023/11/20 05:26:26;;;;;;;;;;;;;;;8.93;100.00;99695.41;5025240;28;20031;-51
2023/11/20 05:28:54;;;;;;;;;;;;;;;8.93;100.00;99699.84;5031222;28;19981;-55
2023/11/20 05:31:22;;;;;;;;;;;;;;;8.87;100.00;99701.06;5031921;28;20031;-56
2023/11/20 05:33:49;;;;;;;;;;;;;;;8.89;100.00;99696.56;5032193;28;20966;-54
2023/11/20 05:36:16;;;;;;;;;;;;;;;8.90;100.00;99700.88;5032869;28;19995;-57
2023/11/20 05:38:43;;;;;;;;;;;;;;;8.93;100.00;99694.59;5035145;28;19980;-56
2023/11/20 05:41:10;;;;;;;;;;;;;;;8.90;100.00;99694.78;5032677;28;19972;-55
2023/11/20 05:43:37;;;;;;;;;;;;;;;8.88;100.00;99693.09;5033537;28;19925;-57
2023/11/20 05:46:04;;;;;;;;;;;;;;;8.91;100.00;99697.28;5030213;28;20020;-56
2023/11/20 05:48:31;;;;;;;;;;;;;;;8.94;100.00;99698.88;5030602;28;20470;-54
2023/11/20 05:50:58;;;;;;;;;;;;;;;8.96;100.00;99699.59;5030211;28;20471;-52
2023/11/20 05:53:25;;;;;;;;;;;;;;;8.96;100.00;99697.84;5027030;28;19933;-58
2023/11/20 05:55:52;;;;;;;;;;;;;;;8.96;100.00;99707.47;5032888;28;20356;-56
2023/11/20 05:58:19;;;;;;;;;;;;;;;8.93;100.00;99695.41;5037028;28;19983;-57
2023/11/20 06:00:46;;;;;;;;;;;;;;;8.96;100.00;99705.72;5027601;28;20015;-56
2023/11/20 06:03:14;;;;;;;;;;;;;;;8.98;100.00;99703.00;5034250;28;20000;-57
2023/11/20 06:05:41;;;;;;;;;;;;;;;8.91;100.00;99701.69;5031620;28;19960;-55
2023/11/20 06:08:08;;;;;;;;;;;;;;;8.91;100.00;99707.78;5031658;28;19972;-53
2023/11/20 06:10:35;;;;;;;;;;;;;;;8.92;100.00;99703.41;5031926;28;20020;-56
2023/11/20 06:13:03;;;;;;;;;;;;;;;8.95;100.00;99708.44;5039936;28;19989;-55
2023/11/20 06:15:30;;;;;;;;;;;;;;;8.94;100.00;99712.84;5028675;28;19975;-58
2023/11/20 06:17:57;;;;;;;;;;;;;;;8.96;100.00;99713.59;5020153;28;20035;-57
2023/11/20 06:20:24;;;;;;;;;;;;;;;9.02;100.00;99712.34;5037418;28;19964;-55
2023/11/20 06:22:51;;;;;;;;;;;;;;;9.00;100.00;99717.66;5027131;28;19925;-57
2023/11/20 06:25:18;;;;;;;;;;;;;;;8.95;100.00;99718.94;5042566;28;19960;-54
2023/11/20 06:27:45;;;;;;;;;;;;;;;8.98;100.00;99719.56;5044899;28;20006;-55
2023/11/20 06:30:12;;;;;;;;;;;;;;;9.00;100.00;99712.44;5032218;28;19977;-54
2023/11/20 06:32:39;;;;;;;;;;;;;;;9.00;100.00;99720.31;5038913;28;19933;-55
2023/11/20 06:35:07;;;;;;;;;;;;;;;9.04;100.00;99719.16;5037400;28;20000;-53
2023/11/20 06:37:34;;;;;;;;;;;;;;;9.02;100.00;99725.47;5048869;28;20480;-52
2023/11/20 06:40:02;;;;;;;;;;;;;;;9.03;100.00;99722.72;5035942;28;19973;-54
2023/11/20 06:42:30;;;;;;;;;;;;;;;8.99;100.00;99726.50;5036299;28;19944;-54
2023/11/20 06:44:56;;;;;;;;;;;;;;;9.00;100.00;99733.44;5044127;28;19925;-53
2023/11/20 06:47:23;;;;;;;;;;;;;;;9.04;100.00;99739.31;5040333;28;19964;-56
2023/11/20 06:49:50;;;;;;;;;;;;;;;9.10;100.00;99731.91;5036868;28;19956;-56
2023/11/20 06:52:17;;;;;;;;;;;;;;;9.06;100.00;99740.06;5035102;28;19976;-51
2023/11/20 06:54:45;;;;;;;;;;;;;;;9.08;100.00;99743.44;5046697;28;19985;-55
2023/11/20 06:57:12;;;;;;;;;;;;;;;9.11;100.00;99743.22;5033640;28;19975;-56
2023/11/20 06:59:39;;;;;;;;;;;;;;;9.08;100.00;99746.06;5048754;28;20024;-55
2023/11/20 07:02:06;;;;;;;;;;;;;;;9.12;100.00;99745.75;5043099;28;20127;-53
2023/11/20 07:04:37;;;;;;;;;;;;;;;9.15;100.00;99747.34;5043361;28;19994;-55
2023/11/20 07:07:05;;;;;;;;;;;;;;;9.19;100.00;99743.56;5061693;22;19968;-62
2023/11/20 07:09:32;;;;;;;;;;;;;;;9.23;100.00;99750.28;5030611;28;19933;-59
2023/11/20 07:11:59;;;;;;;;;;;;;;;9.23;100.00;99738.91;5042863;28;20016;-59
2023/11/20 07:14:26;;;;;;;;;;;;;;;9.27;100.00;99748.28;5034738;28;20011;-60
2023/11/20 07:16:52;;;;;;;;;;;;;;;9.30;100.00;99753.34;5037270;28;20008;-60
2023/11/20 07:19:21;;;;;;;;;;;;;;;9.23;100.00;99747.66;4995306;28;20016;-59
2023/11/20 07:21:48;;;;;;;;;;;;;;;9.25;100.00;99753.66;5016391;28;20015;-58
2023/11/20 07:24:15;;;;;;;;;;;;;;;9.32;100.00;99747.03;5019827;28;19948;-60
2023/11/20 07:26:42;;;;;;;;;;;;;;;9.38;100.00;99754.50;5016013;28;20028;-61
2023/11/20 07:29:10;;;;;;;;;;;;;;;9.40;100.00;99754.38;5011091;28;19972;-61
2023/11/20 07:31:37;;;;;;;;;;;;;;;9.37;100.00;99754.63;4984671;28;19959;-58
2023/11/20 07:34:06;;;;;;;;;;;;;;;9.38;100.00;99753.66;5011167;28;20424;-57
2023/11/20 07:36:34;;;;;;;;;;;;;;;9.43;100.00;99754.19;5016447;28;19925;-59
2023/11/20 07:39:01;;;;;;;;;;;;;;;9.43;100.00;99754.19;5014261;28;19995;-59
2023/11/20 07:41:28;;;;;;;;;;;;;;;9.42;100.00;99752.50;5020396;28;20016;-58
2023/11/20 07:43:55;;;;;;;;;;;;;;;9.46;100.00;99756.63;5026260;28;20023;-57
2023/11/20 07:46:22;;;;;;;;;;;;;;;9.53;100.00;99752.59;5013819;28;20032;-60
2023/11/20 07:48:52;;;;;;;;;;;;;;;9.57;100.00;99743.56;5027024;28;20016;-59
2023/11/20 07:51:20;;;;;;;;;;;;;;;9.63;100.00;99758.06;5017101;28;20019;-56
2023/11/20 07:53:48;;;;;;;;;;;;;;;9.64;100.00;99750.09;5024380;28;19925;-60
2023/11/20 07:56:17;;;;;;;;;;;;;;;9.72;100.00;99760.06;5016969;28;20018;-61
2023/11/20 07:58:44;;;;;;;;;;;;;;;9.72;100.00;99767.94;5020401;28;19964;-58
2023/11/20 08:01:11;;;;;;;;;;;;;;;9.73;100.00;99759.13;5020696;28;19964;-61
2023/11/20 08:03:38;;;;;;;;;;;;;;;9.72;100.00;99764.47;5012149;28;19925;-58
2023/11/20 08:06:05;;;;;;;;;;;;;;;9.74;100.00;99766.06;5011485;28;19976;-57
2023/11/20 08:08:46;;;;;;;;;;;;;;;9.74;100.00;99766.06;5021700;28;19937;-60
2023/11/20 08:11:13;;;;;;;;;;;;;;;9.75;100.00;99772.16;5016324;28;19991;-60
2023/11/20 08:13:40;;;;;;;;;;;;;;;9.69;100.00;99772.59;5016879;28;19963;-58
2023/11/20 08:16:08;;;;;;;;;;;;;;;9.75;100.00;99777.41;5023690;28;19979;-59
2023/11/20 08:18:36;;;;;;;;;;;;;;;9.69;100.00;99772.59;5001197;28;20351;-60
2023/11/20 08:21:03;;;;;;;;;;;;;;;9.74;100.00;99770.50;5013423;28;20024;-59
2023/11/20 08:23:30;;;;;;;;;;;;;;;9.74;100.00;99781.84;5014983;28;19925;-59
2023/11/20 08:25:58;;;;;;;;;;;;;;;9.74;100.00;99778.38;5018803;28;19975;-57
2023/11/20 08:28:25;;;;;;;;;;;;;;;9.73;100.00;99779.31;5022249;28;19971;-58
2023/11/20 08:30:53;;;;;;;;;;;;;;;9.76;100.00;99789.59;5028828;28;19925;-62
2023/11/20 08:33:21;;;;;;;;;;;;;;;9.75;100.00;99777.41;5018490;28;19941;-62
2023/11/20 08:35:48;;;;;;;;;;;;;;;9.77;100.00;99786.03;5020306;28;19953;-61
2023/11/20 08:38:15;;;;;;;;;;;;;;;9.78;100.00;99783.31;5032186;28;19929;-61
2023/11/20 08:40:42;;;;;;;;;;;;;;;9.83;100.00;99783.00;5028753;28;19932;-60
2023/11/20 08:43:09;;;;;;;;;;;;;;;9.91;100.00;99778.06;5023695;28;19958;-61
2023/11/20 08:45:36;;;;;;;;;;;;;;;9.84;100.00;99782.88;5012789;28;19976;-59
2023/11/20 08:48:05;;;;;;;;;;;;;;;9.93;100.00;99781.41;5020343;28;19932;-58
2023/11/20 08:50:32;;;;;;;;;;;;;;;9.96;100.00;99780.34;5015780;28;20016;-60
2023/11/20 08:52:59;;;;;;;;;;;;;;;10.05;100.00;99779.72;5026597;28;20454;-59
2023/11/20 08:55:26;;;;;;;;;;;;;;;10.05;100.00;99783.19;5022759;28;19925;-59
2023/11/20 08:57:55;;;;;;;;;;;;;;;10.09;100.00;99786.44;5018836;28;21386;-60
2023/11/20 09:00:24;;;;;;;;;;;;;;;10.05;100.00;99788.44;5024251;28;20020;-60
2023/11/20 09:02:51;;;;;;;;;;;;;;;10.04;100.00;99789.41;5007843;28;19957;-59
2023/11/20 09:05:18;;;;;;;;;;;;;;;10.16;100.00;99792.94;5016979;28;20414;-59
2023/11/20 09:07:45;;;;;;;;;;;;;;;10.19;100.00;99790.09;5016076;28;19926;-59
2023/11/20 09:10:12;;;;;;;;;;;;;;;10.27;100.00;99794.84;5026023;28;19926;-60
2023/11/20 09:12:41;;;;;;;;;;;;;;;10.30;100.00;99786.72;5024910;28;20322;-60
2023/11/20 09:15:10;;;;;;;;;;;;;;;10.50;100.00;99788.78;5021682;28;19975;-57
2023/11/20 09:17:37;;;;;;;;;;;;;;;10.67;100.00;99784.91;5002461;28;19957;-60
2023/11/20 09:20:05;;;;;;;;;;;;;;;10.74;100.00;99785.31;5015993;28;20387;-60
2023/11/20 09:22:32;;;;;;;;;;;;;;;10.80;100.00;99782.22;5006967;28;19956;-61
2023/11/20 09:24:59;;;;;;;;;;;;;;;10.87;100.00;99794.00;5021823;28;19976;-60
2023/11/20 09:27:32;;;;;;;;;;;;;;;10.97;100.00;99794.16;5032353;28;20485;-61
2023/11/20 09:29:59;;;;;;;;;;;;;;;10.97;100.00;99799.44;5031076;28;19926;-56
2023/11/20 09:32:26;;;;;;;;;;;;;;;10.85;100.00;99798.53;5020562;28;19972;-58
2023/11/20 09:34:54;;;;;;;;;;;;;;;10.83;100.00;99797.81;5020764;28;19926;-60
2023/11/20 09:37:21;;;;;;;;;;;;;;;10.71;100.00;99794.28;5015011;28;19964;-57
2023/11/20 09:39:49;;;;;;;;;;;;;;;10.59;100.00;99798.66;5028055;28;20303;-58
2023/11/20 09:42:17;;;;;;;;;;;;;;;10.69;100.00;99800.63;5020358;28;19968;-60
2023/11/20 09:44:46;;;;;;;;;;;;;;;10.74;100.00;99793.22;4999187;28;20310;-59
2023/11/20 09:47:13;;;;;;;;;;;;;;;10.84;100.00;99795.06;5004626;28;20020;-60
2023/11/20 09:49:42;;;;;;;;;;;;;;;10.86;100.00;99793.16;5021359;28;20039;-60
2023/11/20 09:52:09;;;;;;;;;;;;;;;10.87;100.00;99796.63;5021784;28;19956;-61
2023/11/20 09:54:37;;;;;;;;;;;;;;;10.80;100.00;99792.75;5030621;28;20026;-59
2023/11/20 09:57:05;;;;;;;;;;;;;;;10.76;100.00;99796.56;5026172;28;20530;-59
2023/11/20 09:59:31;;;;;;;;;;;;;;;10.78;100.00;99790.25;5027251;28;20456;-57
2023/11/20 10:01:58;;;;;;;;;;;;;;;10.80;100.00;99784.88;5017721;28;19952;-60
2023/11/20 10:04:26;;;;;;;;;;;;;;;10.78;100.00;99789.41;5026308;28;19965;-61
2023/11/20 10:06:53;;;;;;;;;;;;;;;10.85;100.00;99790.63;5000602;28;19935;-61
2023/11/20 10:09:23;;;;;;;;;;;;;;;10.86;100.00;99785.28;5006736;28;20044;-57
2023/11/20 10:11:55;;;;;;;;;;;;;;;10.87;100.00;99784.31;5027435;28;20328;-59
2023/11/20 10:14:23;;;;;;;;;;;;;;;10.93;100.00;99782.19;5007849;28;19961;-60
2023/11/20 10:16:51;;;;;;;;;;;;;;;10.81;100.00;99790.03;5025444;28;20044;-60
2023/11/20 10:19:18;;;;;;;;;;;;;;;10.86;100.00;99782.63;5021095;28;20073;-57
2023/11/20 10:21:46;;;;;;;;;;;;;;;10.90;100.00;99784.09;5017702;28;19980;-59
2023/11/20 10:24:17;;;;;;;;;;;;;;;10.90;100.00;99783.25;5014942;28;20036;-60
2023/11/20 10:26:46;;;;;;;;;;;;;;;10.93;100.00;99787.44;5028891;28;20024;-61
2023/11/20 10:29:13;;;;;;;;;;;;;;;10.98;100.00;99780.03;5022346;28;19979;-59
2023/11/20 10:31:43;;;;;;;;;;;;;;;10.99;100.00;99787.84;5029268;28;19933;-58
2023/11/20 10:34:11;;;;;;;;;;;;;;;11.07;100.00;99785.47;5025348;28;20015;-57
2023/11/20 10:36:38;;;;;;;;;;;;;;;11.22;100.00;99793.19;5019094;28;19976;-60
2023/11/20 10:39:07;;;;;;;;;;;;;;;11.20;100.00;99784.56;5025082;28;19964;-58
2023/11/20 10:41:41;;;;;;;;;;;;;;;11.21;100.00;99781.78;5029558;28;19987;-60
2023/11/20 10:44:08;;;;;;;;;;;;;;;11.30;100.00;99783.75;5016607;28;20451;-61
2023/11/20 10:46:36;;;;;;;;;;;;;;;11.45;100.00;99779.13;5027123;28;20032;-60
2023/11/20 10:49:06;;;;;;;;;;;;;;;11.64;100.00;99781.19;5023724;28;20514;-59
2023/11/20 10:51:34;;;;;;;;;;;;;;;11.71;100.00;99779.78;5006994;28;19958;-62
2023/11/20 10:54:04;;;;;;;;;;;;;;;11.78;100.00;99774.84;5023702;28;19933;-55
2023/11/20 10:56:31;;;;;;;;;;;;;;;11.88;100.00;99775.84;5021810;28;20427;-57
2023/11/20 10:59:02;;;;;;;;;;;;;;;11.90;100.00;99772.13;5010281;28;19926;-59
2023/11/20 11:01:29;;;;;;;;;;;;;;;11.97;100.00;99775.13;5001279;28;19933;-59
2023/11/20 11:03:59;;;;;;;;;;;;;;;11.99;100.00;99777.66;5008835;28;20532;-62
2023/11/20 11:06:27;;;;;;;;;;;;;;;11.97;100.00;99780.41;5010492;28;20001;-56
2023/11/20 11:08:54;;;;;;;;;;;;;;;11.77;100.00;99781.94;5013329;28;19965;-58
2023/11/20 11:11:22;;;;;;;;;;;;;;;11.59;100.00;99789.44;5016979;28;20017;-60
2023/11/20 11:13:50;;;;;;;;;;;;;;;11.51;100.00;99786.56;5019599;28;20020;-60
2023/11/20 11:16:28;;;;;;;;;;;;;;;11.40;100.00;99790.00;5022147;28;20443;-60
2023/11/20 11:19:00;;;;;;;;;;;;;;;11.30;100.00;99785.53;5024793;28;19925;-60
2023/11/20 11:21:27;;;;;;;;;;;;;;;11.22;100.00;99788.75;5026071;28;20019;-61
2023/11/20 11:23:54;;;;;;;;;;;;;;;11.10;100.00;99790.50;5001320;28;19980;-60
2023/11/20 11:26:25;;;;;;;;;;;;;;;11.04;100.00;99788.34;5006092;28;19984;-60
2023/11/20 11:28:53;;;;;;;;;;;;;;;11.11;100.00;99784.28;5007019;28;20038;-58
2023/11/20 11:31:20;;;;;;;;;;;;;;;11.15;100.00;99777.00;5007369;28;19972;-60
2023/11/20 11:33:54;;;;;;;;;;;;;;;11.21;100.00;99779.16;4990998;28;20008;-57
2023/11/20 11:36:21;;;;;;;;;;;;;;;11.28;100.00;99777.75;5015513;28;19930;-58
2023/11/20 11:38:48;;;;;;;;;;;;;;;11.35;100.00;99772.88;5015586;28;19964;-61
2023/11/20 11:41:33;;;;;;;;;;;;;;;11.40;100.00;99770.72;5016128;28;19932;-60
2023/11/20 11:44:04;;;;;;;;;;;;;;;11.35;100.00;99770.25;5015284;28;19969;-58
2023/11/20 11:46:35;;;;;;;;;;;;;;;11.31;100.00;99774.06;5011678;28;19926;-60
2023/11/20 11:49:16;;;;;;;;;;;;;;;11.19;100.00;99769.72;5011047;28;19929;-59
2023/11/20 11:51:45;;;;;;;;;;;;;;;11.20;100.00;99771.38;5013222;28;20017;-57
2023/11/20 11:54:16;;;;;;;;;;;;;;;11.13;100.00;99768.38;5007385;28;21200;-61
2023/11/20 11:56:46;;;;;;;;;;;;;;;11.05;100.00;99773.38;5009245;28;19933;-59
2023/11/20 11:59:14;;;;;;;;;;;;;;;11.11;100.00;99770.28;5012675;28;19964;-61
2023/11/20 12:01:48;;;;;;;;;;;;;;;11.09;100.00;99773.03;4994944;28;20412;-60
2023/11/20 12:04:35;;;;;;;;;;;;;;;10.93;100.00;99775.09;5015209;28;20019;-60
2023/11/20 12:07:03;;;;;;;;;;;;;;;10.83;100.00;99776.75;5001577;28;20020;-57
2023/11/20 12:10:10;;;;;;;;;;;;;;;10.76;100.00;99772.88;5010786;28;19925;-62
2023/11/20 12:12:55;;;;;;;;;;;;;;;10.69;100.00;99767.22;4986736;28;20376;-62
2023/11/20 12:15:36;;;;;;;;;;;;;;;10.73;100.00;99759.97;5018804;28;19925;-60
2023/11/20 12:18:13;;;;;;;;;;;;;;;10.81;100.00;99765.50;5024366;28;20027;-59
2023/11/20 12:21:01;;;;;;;;;;;;;;;10.86;100.00;99766.84;5018853;28;20024;-62
2023/11/20 12:23:30;;;;;;;;;;;;;;;10.75;100.00;99758.03;5009676;28;19929;-61
2023/11/20 12:25:57;;;;;;;;;;;;;;;10.72;100.00;99763.56;5013110;28;19956;-60
2023/11/20 12:28:25;;;;;;;;;;;;;;;10.72;100.00;99760.91;5019223;28;19972;-61
2023/11/20 12:30:54;;;;;;;;;;;;;;;10.71;100.00;99757.41;4987160;28;20037;-60
2023/11/20 12:33:25;;;;;;;;;;;;;;;10.72;100.00;99758.28;4977024;28;19968;-59
2023/11/20 12:35:55;;;;;;;;;;;;;;;10.77;100.00;99764.03;5011965;28;20490;-61
2023/11/20 12:38:22;;;;;;;;;;;;;;;10.79;100.00;99762.97;5009868;28;19960;-60
2023/11/20 12:40:56;;;;;;;;;;;;;;;10.79;100.00;99762.13;5004860;28;19992;-61
2023/11/20 12:43:26;;;;;;;;;;;;;;;10.85;100.00;99759.03;5004504;28;19951;-58
2023/11/20 12:45:53;;;;;;;;;;;;;;;10.89;100.00;99757.84;5012614;28;19925;-58
2023/11/20 12:48:20;;;;;;;;;;;;;;;10.83;100.00;99758.31;5013577;28;20387;-60